• Join FlightAware (Why Join?)
  • Login
  • US Flag 
01:34AM EDT


 

Airport Tracker/Info


-or-


 

Live Flight TrackerFlight Track Log ✈ SWA1729 ✈ 19-Apr-2013 ✈ KBNA - KHOU

Flight Track Log - Related Links

Times and Time Zones

All times are in EDT time to prevent confusion due to time zone crossing. See the SWA1729 flight status page for this flight to view local times or setup timezone preferences in your user account.

Time Position Orientation Groundspeed Altitude Reporting Facility
EDT Latitude Longitude Course Direction KTS MPH feet Rate Location/Type
07:32PM 36.1000 -86.6833 238° Southwest 161 185 1,500  Level Nashville TRACON
07:33PM 36.0833 -86.7167 238° Southwest 179 206 2,600 2,640 Climbing Nashville TRACON
07:34PM 36.0833 -86.7833 270° West 220 253 5,500 3,120 Climbing Nashville TRACON
07:35PM 36.0833 -86.8500 270° West 225 259 8,300 2,940 Climbing Nashville TRACON
07:35PM 36.0900 -86.9178 277° West 237 273 10,600 1,980 Climbing Memphis Center
07:36PM 36.0928 -87.0178 272° West 268 308 11,900 2,040 Climbing Memphis Center
07:37PM 36.0958 -87.1308 272° West 317 365 14,700 2,460 Climbing Memphis Center
07:38PM 36.0961 -87.2283 270° West 329 379 16,900 2,100 Climbing Memphis Center
07:39PM 36.0739 -87.3422 256° West 334 384 18,900 2,040 Climbing Memphis Center
07:40PM 36.0494 -87.4561 255° West 344 396 21,000 2,100 Climbing Memphis Center
07:41PM 36.0272 -87.5800 258° West 358 412 23,100 1,860 Climbing Memphis Center
07:42PM 36.0008 -87.6964 254° West 363 418 24,800 1,500 Climbing Memphis Center
07:43PM 35.9742 -87.8281 256° West 363 418 26,200 1,740 Climbing Memphis Center
07:44PM 35.9497 -87.9519 256° West 363 418 28,300 1,920 Climbing Memphis Center
07:45PM 35.9269 -88.0678 256° West 358 412 30,100 1,500 Climbing Memphis Center
07:46PM 35.9056 -88.1658 255° West 358 412 31,400 960 Climbing Memphis Center
07:47PM 35.8783 -88.2742 253° West 345 397 32,100 900 Climbing Memphis Center
07:48PM 35.8300 -88.3778 240° Southwest 345 397 33,300 900 Climbing Memphis Center
07:49PM 35.7772 -88.4789 237° Southwest 350 403 34,000 300 Climbing Memphis Center
07:50PM 35.7289 -88.5797 239° Southwest 355 409 34,000  Level Memphis Center
07:51PM 35.6719 -88.6883 237° Southwest 355 409 34,000  Level Memphis Center
07:52PM 35.6231 -88.7864 238° Southwest 350 403 34,000  Level Memphis Center
07:53PM 35.5783 -88.8792 239° Southwest 350 403 34,000  Level Memphis Center
07:54PM 35.5294 -88.9819 240° Southwest 350 403 34,000  Level Memphis Center
07:55PM 35.4806 -89.0772 238° Southwest 345 397 34,000 -60 Level Memphis Center
07:56PM 35.4294 -89.1772 238° Southwest 345 397 33,900 -600 Descending Memphis Center
07:57PM 35.3803 -89.2772 239° Southwest 345 397 32,900 -960 Descending Memphis Center
07:58PM 35.3308 -89.3722 237° Southwest 340 391 32,000 -480 Descending Memphis Center
07:59PM 35.2775 -89.4769 238° Southwest 340 391 32,000  Level Memphis Center
08:00PM 35.2261 -89.5767 238° Southwest 340 391 32,000  Level Memphis Center
08:01PM 35.1786 -89.6736 239° Southwest 340 391 32,000  Level Memphis Center
08:02PM 35.1269 -89.7731 238° Southwest 340 391 32,000  Level Memphis Center
08:03PM 35.0794 -89.8700 239° Southwest 340 391 32,000  Level Memphis Center
08:04PM 35.0297 -89.9667 238° Southwest 340 391 32,000  Level Memphis Center
08:05PM 34.9589 -90.0428 221° Southwest 340 391 32,000  Level Memphis Center
08:06PM 34.8819 -90.1117 216° Southwest 340 391 32,000  Level Memphis Center
08:07PM 34.8006 -90.1850 217° Southwest 358 412 32,000  Level Memphis Center
08:08PM 34.7214 -90.2586 217° Southwest 364 419 32,000  Level Memphis Center
08:09PM 34.6403 -90.3319 217° Southwest 364 419 32,000  Level Memphis Center
08:10PM 34.5608 -90.4050 217° Southwest 364 419 32,000  Level Memphis Center
08:11PM 34.4772 -90.4781 216° Southwest 364 419 32,000  Level Memphis Center
08:12PM 34.4000 -90.5511 218° Southwest 364 419 32,000  Level Memphis Center
08:13PM 34.3186 -90.6236 216° Southwest 364 419 32,000  Level Memphis Center
08:14PM 34.2369 -90.6964 216° Southwest 364 419 32,000  Level Memphis Center
08:15PM 34.1636 -90.7614 216° Southwest 364 419 32,000  Level Memphis Center
08:16PM 34.0822 -90.8336 216° Southwest 364 419 32,000  Level Memphis Center
08:17PM 34.0025 -90.9083 218° Southwest 364 419 32,000  Level Memphis Center
08:18PM 33.9228 -90.9831 218° Southwest 374 430 32,000  Level Memphis Center
08:19PM 33.8389 -91.0550 215° Southwest 374 430 32,000  Level Memphis Center
08:20PM 33.7592 -91.1267 217° Southwest 369 425 32,000  Level Memphis Center
08:21PM 33.6753 -91.1983 215° Southwest 369 425 32,000  Level Memphis Center
08:22PM 33.5956 -91.2725 218° Southwest 364 419 32,000  Level Memphis Center
08:23PM 33.5156 -91.3414 216° Southwest 364 419 32,000  Level Memphis Center
08:25PM 33.3875 -91.4631 218° Southwest 369 425 32,000  Level Fort Worth Center
08:26PM 33.3011 -91.5336 214° Southwest 364 419 32,000  Level Fort Worth Center
08:27PM 33.2231 -91.6033 217° Southwest 364 419 32,000  Level Fort Worth Center
08:28PM 33.1425 -91.6706 215° Southwest 376 433 32,000  Level Fort Worth Center
08:29PM 33.0644 -91.7425 218° Southwest 376 433 32,000  Level Fort Worth Center
08:30PM 32.9739 -91.8175 215° Southwest 368 423 32,000  Level Fort Worth Center
08:31PM 32.8956 -91.8867 217° Southwest 363 418 32,000  Level Fort Worth Center
08:32PM 32.8111 -91.9586 216° Southwest 369 425 32,000  Level Fort Worth Center
08:33PM 32.7306 -92.0278 216° Southwest 369 425 32,000  Level Fort Worth Center
08:35PM 32.5378 -92.1900 215° Southwest 370 426 32,000  Level Houston Center
08:36PM 32.4553 -92.2592 215° Southwest 366 421 32,000  Level Houston Center
08:37PM 32.3739 -92.3297 216° Southwest 364 419 32,000  Level Houston Center
08:38PM 32.2950 -92.4022 218° Southwest 361 415 32,000  Level Houston Center
08:39PM 32.2142 -92.4736 217° Southwest 362 417 32,000  Level Houston Center
08:40PM 32.1147 -92.5572 215° Southwest 364 419 32,000  Level Houston Center
08:41PM 32.0325 -92.6264 216° Southwest 364 419 32,000  Level Houston Center
08:43PM 31.9553 -92.6994 219° Southwest 358 412 32,000  Level Houston Center
08:44PM 31.8889 -92.7847 227° Southwest 353 406 32,000  Level Houston Center
08:45PM 31.8231 -92.8678 227° Southwest 349 402 32,000  Level Houston Center
08:46PM 31.7575 -92.9525 228° Southwest 351 404 32,000  Level Houston Center
08:47PM 31.6928 -93.0356 228° Southwest 346 398 32,000  Level Houston Center
08:48PM 31.6133 -93.1353 227° Southwest 350 403 32,000  Level Houston Center
08:49PM 31.5478 -93.2167 227° Southwest 345 397 32,000  Level Houston Center
08:50PM 31.4850 -93.2950 227° Southwest 346 398 32,000  Level Houston Center
08:51PM 31.4211 -93.3775 228° Southwest 344 396 32,000  Level Houston Center
08:52PM 31.3756 -93.4728 241° Southwest 339 390 32,000  Level Houston Center
08:53PM 31.3550 -93.5961 259° West 334 384 32,000  Level Houston Center
08:54PM 31.3375 -93.7042 259° West 337 388 32,000  Level Houston Center
08:55PM 31.3206 -93.8133 260° West 340 391 32,000  Level Houston Center
08:56PM 31.2869 -93.9144 249° West 344 396 32,000  Level Houston Center
08:57PM 31.2069 -93.9836 216° Southwest 355 409 32,000  Level Houston Center
08:58PM 31.1211 -94.0483 213° Southwest 363 418 32,000 -360 Level Houston Center
08:59PM 31.0364 -94.1122 213° Southwest 361 415 31,300 -960 Descending Houston Center
09:00PM 30.9508 -94.1761 213° Southwest 356 410 30,100 -1,260 Descending Houston Center
09:01PM 30.8622 -94.2436 213° Southwest 322 371 28,700 -1,380 Descending Houston Center
09:02PM 30.7903 -94.2967 212° Southwest 306 352 27,300 -1,680 Descending Houston Center
09:03PM 30.7203 -94.3489 213° Southwest 300 345 25,300 -1,800 Descending Houston Center
09:04PM 30.6475 -94.4025 212° Southwest 295 339 23,700 -1,260 Descending Houston Center
09:05PM 30.5697 -94.4617 213° Southwest 341 392 22,800 -1,140 Descending Houston Center
09:05PM 30.5397 -94.4822 211° Southwest 364 419 22,200 -2,040 Descending Houston Center
09:06PM 30.4900 -94.5264 217° Southwest 340 391 20,700 -2,400 Descending Houston Center
09:06PM 30.4675 -94.5594 232° Southwest 328 377 19,800 -2,280 Descending Houston Center
09:07PM 30.4350 -94.6103 233° Southwest 323 372 18,400 -1,980 Descending Houston Center
09:08PM 30.3842 -94.6906 234° Southwest 314 361 16,300 -2,460 Descending Houston Center
09:08PM 30.3633 -94.7208 231° Southwest 311 358 15,300 -2,460 Descending Houston Center
09:09PM 30.3314 -94.7733 235° Southwest 317 365 13,800 -2,160 Descending Houston Center
09:10PM 30.2994 -94.8208 232° Southwest 341 392 12,900 -1,680 Descending Houston Center
09:10PM 30.2747 -94.8594 233° Southwest 332 382 12,100 -1,260 Descending Houston Center
09:11PM 30.2461 -94.9028 233° Southwest 319 367 11,600 -1,320 Descending Houston Center
09:11PM 30.2125 -94.9578 235° Southwest 321 369 10,800 -1,320 Descending Houston Center
09:12PM 30.1967 -94.9792 229° Southwest 319 367 10,400 -900 Descending Houston Center
09:12PM 30.1581 -95.0397 234° Southwest 322 371 9,900 -240 Descending Houston Center
09:13PM 30.0917 -95.0897 213° Southwest 297 342 10,000  Climbing Houston Center
09:14PM 30.0136 -95.1236 201° Southwest 298 343 9,900 -540 Descending Houston Center
09:15PM 29.9367 -95.1567 200° South 297 342 9,000 -840 Descending Houston Center
09:16PM 29.8639 -95.1875 200° South 283 326 8,300 -540 Descending Houston Center
09:17PM 29.8006 -95.2153 201° Southwest 251 289 8,000 -240 Descending Houston Center
09:18PM 29.7664 -95.2300 201° Southwest 256 295 8,000  Level Houston Center
09:18PM 29.7172 -95.2344 184° South 262 302 8,000  Level Houston Center
09:19PM 29.6911 -95.2342 179° South 251 289 8,000 -840 Level Houston Center
09:19PM 29.6475 -95.2367 183° South 256 295 7,200 -1,200 Descending Houston Center
09:20PM 29.6222 -95.2378 182° South 250 288 6,800 -1,200 Descending Houston Center
09:20PM 29.5792 -95.2383 181° South 254 292 6,000 -480 Descending Houston Center
09:22PM 29.5231 -95.2806 213° Southwest 249 287 6,000  Level Houston Center
09:22PM 29.5044 -95.3025 226° Southwest 251 289 6,000 -780 Level Houston Center
09:23PM 29.4511 -95.3617 224° Southwest 240 276 5,000 -900 Descending Houston Center
09:24PM 29.4256 -95.3878 222° Southwest 242 278 4,500 -900 Descending Houston Center
09:24PM 29.4050 -95.4106 224° Southwest 221 254 4,100 -540 Descending Houston Center
09:25PM 29.4025 -95.4542 266° West 210 242 4,000 -240 Descending Houston Center
09:26PM 29.4522 -95.4617 353° North 195 224 3,700 -480 Descending Houston Center
09:27PM 29.5006 -95.4339 27° Northeast 193 222 3,100 -540 Descending Houston Center
09:28PM 29.5428 -95.3925 40° Northeast 195 224 2,700 -660 Descending Houston Center
09:28PM 29.5553 -95.3781 45° Northeast 192 221 2,300 -1,020 Descending Houston Center
09:29PM 29.5786 -95.3522 44° Northeast 188 216 1,700 -780 Descending Houston Center
09:30PM 29.6039 -95.3236 45° Northeast 148 170 1,000 -720 Descending Houston Center
09:31PM 29.6294 -95.2961 43° Northeast 132 152 300 -420 Descending Houston Center
09:32PM 29.6553 -95.2683 43° Northeast 132 152 200 -120 Descending Houston Center